sensor_id;sensor_type;location;lat;lon;timestamp;P1;durP1;ratioP1;P2;durP2;ratioP2
70071;SDS011;57434;42.794;23.302;2024-02-04T00:00:08;10.27;;;3.70;;
70071;SDS011;57434;42.794;23.302;2024-02-04T00:01:10;9.10;;;3.60;;
70071;SDS011;57434;42.794;23.302;2024-02-04T00:02:12;8.05;;;3.63;;
70071;SDS011;57434;42.794;23.302;2024-02-04T00:03:13;11.15;;;4.32;;
70071;SDS011;57434;42.794;23.302;2024-02-04T00:04:15;10.07;;;3.58;;
70071;SDS011;57434;42.794;23.302;2024-02-04T00:05:16;9.02;;;3.40;;
70071;SDS011;57434;42.794;23.302;2024-02-04T00:06:18;9.82;;;4.25;;
70071;SDS011;57434;42.794;23.302;2024-02-04T00:07:20;10.60;;;3.88;;
70071;SDS011;57434;42.794;23.302;2024-02-04T00:08:21;8.45;;;3.70;;
70071;SDS011;57434;42.794;23.302;2024-02-04T00:09:23;8.55;;;3.67;;
70071;SDS011;57434;42.794;23.302;2024-02-04T00:10:24;9.10;;;4.07;;
70071;SDS011;57434;42.794;23.302;2024-02-04T00:11:26;12.32;;;4.00;;
70071;SDS011;57434;42.794;23.302;2024-02-04T00:12:27;10.70;;;4.15;;
70071;SDS011;57434;42.794;23.302;2024-02-04T00:13:29;9.05;;;3.70;;
70071;SDS011;57434;42.794;23.302;2024-02-04T00:14:31;10.57;;;3.40;;
70071;SDS011;57434;42.794;23.302;2024-02-04T00:15:33;10.52;;;4.10;;
70071;SDS011;57434;42.794;23.302;2024-02-04T00:16:34;9.68;;;3.70;;
70071;SDS011;57434;42.794;23.302;2024-02-04T00:17:36;9.32;;;3.53;;
70071;SDS011;57434;42.794;23.302;2024-02-04T00:18:38;9.60;;;4.15;;
70071;SDS011;57434;42.794;23.302;2024-02-04T00:19:40;8.70;;;3.55;;
70071;SDS011;57434;42.794;23.302;2024-02-04T00:20:42;12.17;;;4.20;;
70071;SDS011;57434;42.794;23.302;2024-02-04T00:21:43;12.40;;;4.20;;
70071;SDS011;57434;42.794;23.302;2024-02-04T00:22:45;11.60;;;4.10;;
70071;SDS011;57434;42.794;23.302;2024-02-04T00:23:46;10.30;;;3.42;;
70071;SDS011;57434;42.794;23.302;2024-02-04T00:24:48;9.70;;;3.50;;
70071;SDS011;57434;42.794;23.302;2024-02-04T00:25:50;11.95;;;4.13;;
70071;SDS011;57434;42.794;23.302;2024-02-04T00:26:51;8.73;;;3.60;;
70071;SDS011;57434;42.794;23.302;2024-02-04T00:27:53;11.07;;;3.75;;
70071;SDS011;57434;42.794;23.302;2024-02-04T00:28:55;9.52;;;3.97;;
70071;SDS011;57434;42.794;23.302;2024-02-04T00:29:57;10.63;;;4.35;;
70071;SDS011;57434;42.794;23.302;2024-02-04T00:30:58;11.67;;;4.43;;
70071;SDS011;57434;42.794;23.302;2024-02-04T00:32:00;8.90;;;3.92;;
70071;SDS011;57434;42.794;23.302;2024-02-04T00:33:01;10.50;;;4.63;;
70071;SDS011;57434;42.794;23.302;2024-02-04T00:34:03;10.20;;;4.18;;
70071;SDS011;57434;42.794;23.302;2024-02-04T00:35:05;10.05;;;4.13;;
70071;SDS011;57434;42.794;23.302;2024-02-04T00:36:07;9.75;;;4.10;;
70071;SDS011;57434;42.794;23.302;2024-02-04T00:37:08;9.40;;;4.15;;
70071;SDS011;57434;42.794;23.302;2024-02-04T00:38:10;11.85;;;4.13;;
70071;SDS011;57434;42.794;23.302;2024-02-04T00:39:11;10.80;;;4.22;;
70071;SDS011;57434;42.794;23.302;2024-02-04T00:40:13;7.53;;;3.45;;
70071;SDS011;57434;42.794;23.302;2024-02-04T00:41:14;9.10;;;4.20;;
70071;SDS011;57434;42.794;23.302;2024-02-04T00:42:16;10.10;;;4.00;;
70071;SDS011;57434;42.794;23.302;2024-02-04T00:43:18;13.20;;;4.35;;
70071;SDS011;57434;42.794;23.302;2024-02-04T00:44:19;10.30;;;4.57;;
70071;SDS011;57434;42.794;23.302;2024-02-04T00:45:21;10.63;;;4.15;;
70071;SDS011;57434;42.794;23.302;2024-02-04T00:46:23;11.77;;;4.85;;
70071;SDS011;57434;42.794;23.302;2024-02-04T00:47:24;13.40;;;4.97;;
70071;SDS011;57434;42.794;23.302;2024-02-04T00:48:26;10.35;;;4.43;;
70071;SDS011;57434;42.794;23.302;2024-02-04T00:49:27;10.50;;;5.10;;
70071;SDS011;57434;42.794;23.302;2024-02-04T00:50:29;10.90;;;4.45;;
70071;SDS011;57434;42.794;23.302;2024-02-04T00:51:31;15.20;;;5.23;;
70071;SDS011;57434;42.794;23.302;2024-02-04T00:52:32;10.27;;;5.13;;
70071;SDS011;57434;42.794;23.302;2024-02-04T00:53:34;12.02;;;4.90;;
70071;SDS011;57434;42.794;23.302;2024-02-04T00:54:35;12.30;;;5.57;;
70071;SDS011;57434;42.794;23.302;2024-02-04T00:55:37;11.98;;;5.57;;
70071;SDS011;57434;42.794;23.302;2024-02-04T00:56:39;9.88;;;4.43;;
70071;SDS011;57434;42.794;23.302;2024-02-04T00:57:40;13.82;;;4.93;;
70071;SDS011;57434;42.794;23.302;2024-02-04T00:58:42;13.45;;;5.40;;
70071;SDS011;57434;42.794;23.302;2024-02-04T00:59:43;12.30;;;5.97;;
70071;SDS011;57434;42.794;23.302;2024-02-04T01:00:45;16.20;;;6.03;;
70071;SDS011;57434;42.794;23.302;2024-02-04T01:01:47;12.67;;;5.67;;
70071;SDS011;57434;42.794;23.302;2024-02-04T01:02:48;12.57;;;5.82;;
70071;SDS011;57434;42.794;23.302;2024-02-04T01:03:50;12.52;;;4.97;;
70071;SDS011;57434;42.794;23.302;2024-02-04T01:04:52;12.88;;;5.20;;
70071;SDS011;57434;42.794;23.302;2024-02-04T01:05:53;13.48;;;5.80;;
70071;SDS011;57434;42.794;23.302;2024-02-04T01:06:55;12.02;;;5.00;;
70071;SDS011;57434;42.794;23.302;2024-02-04T01:08:02;16.10;;;5.75;;
70071;SDS011;57434;42.794;23.302;2024-02-04T01:09:04;11.07;;;5.03;;
70071;SDS011;57434;42.794;23.302;2024-02-04T01:10:05;12.13;;;5.38;;
70071;SDS011;57434;42.794;23.302;2024-02-04T01:11:10;12.38;;;5.18;;
70071;SDS011;57434;42.794;23.302;2024-02-04T01:12:11;12.33;;;5.23;;
70071;SDS011;57434;42.794;23.302;2024-02-04T01:13:13;12.57;;;5.18;;
70071;SDS011;57434;42.794;23.302;2024-02-04T01:14:15;14.25;;;5.53;;
70071;SDS011;57434;42.794;23.302;2024-02-04T01:15:16;11.55;;;5.15;;
70071;SDS011;57434;42.794;23.302;2024-02-04T01:16:18;12.10;;;5.05;;
70071;SDS011;57434;42.794;23.302;2024-02-04T01:17:20;13.88;;;5.75;;
70071;SDS011;57434;42.794;23.302;2024-02-04T01:18:21;12.32;;;5.13;;
70071;SDS011;57434;42.794;23.302;2024-02-04T01:19:23;11.23;;;5.25;;
70071;SDS011;57434;42.794;23.302;2024-02-04T01:20:25;13.52;;;6.10;;
70071;SDS011;57434;42.794;23.302;2024-02-04T01:21:26;11.77;;;5.45;;
70071;SDS011;57434;42.794;23.302;2024-02-04T01:22:28;9.77;;;5.07;;
70071;SDS011;57434;42.794;23.302;2024-02-04T01:23:29;14.50;;;4.90;;
70071;SDS011;57434;42.794;23.302;2024-02-04T01:24:31;11.50;;;5.43;;
70071;SDS011;57434;42.794;23.302;2024-02-04T01:25:33;13.20;;;5.47;;
70071;SDS011;57434;42.794;23.302;2024-02-04T01:26:35;12.95;;;5.55;;
70071;SDS011;57434;42.794;23.302;2024-02-04T01:27:36;13.45;;;5.47;;
70071;SDS011;57434;42.794;23.302;2024-02-04T01:28:38;12.15;;;5.43;;
70071;SDS011;57434;42.794;23.302;2024-02-04T01:29:39;13.93;;;6.38;;
70071;SDS011;57434;42.794;23.302;2024-02-04T01:30:41;13.48;;;5.60;;
70071;SDS011;57434;42.794;23.302;2024-02-04T01:31:42;18.27;;;5.88;;
70071;SDS011;57434;42.794;23.302;2024-02-04T01:32:44;23.00;;;7.97;;
70071;SDS011;57434;42.794;23.302;2024-02-04T01:33:46;21.73;;;7.68;;
70071;SDS011;57434;42.794;23.302;2024-02-04T01:34:48;20.98;;;8.60;;
70071;SDS011;57434;42.794;23.302;2024-02-04T01:35:49;23.40;;;8.52;;
70071;SDS011;57434;42.794;23.302;2024-02-04T01:36:51;19.63;;;7.15;;
70071;SDS011;57434;42.794;23.302;2024-02-04T01:37:52;26.50;;;9.55;;
70071;SDS011;57434;42.794;23.302;2024-02-04T01:38:54;17.60;;;7.30;;
70071;SDS011;57434;42.794;23.302;2024-02-04T01:39:55;23.13;;;7.78;;
70071;SDS011;57434;42.794;23.302;2024-02-04T01:40:57;22.95;;;8.98;;
70071;SDS011;57434;42.794;23.302;2024-02-04T01:41:59;27.35;;;8.98;;
70071;SDS011;57434;42.794;23.302;2024-02-04T01:43:00;15.20;;;6.07;;
70071;SDS011;57434;42.794;23.302;2024-02-04T01:44:02;17.55;;;6.45;;
70071;SDS011;57434;42.794;23.302;2024-02-04T01:45:04;23.02;;;7.95;;
70071;SDS011;57434;42.794;23.302;2024-02-04T01:46:05;16.95;;;7.40;;
70071;SDS011;57434;42.794;23.302;2024-02-04T01:47:09;18.90;;;7.25;;
70071;SDS011;57434;42.794;23.302;2024-02-04T01:48:11;18.80;;;6.88;;
70071;SDS011;57434;42.794;23.302;2024-02-04T01:49:13;16.92;;;6.75;;
70071;SDS011;57434;42.794;23.302;2024-02-04T01:50:15;19.25;;;7.35;;
70071;SDS011;57434;42.794;23.302;2024-02-04T01:51:17;18.83;;;6.05;;
70071;SDS011;57434;42.794;23.302;2024-02-04T01:52:18;14.38;;;6.38;;
70071;SDS011;57434;42.794;23.302;2024-02-04T01:53:21;16.47;;;5.63;;
70071;SDS011;57434;42.794;23.302;2024-02-04T01:54:23;16.77;;;6.40;;
70071;SDS011;57434;42.794;23.302;2024-02-04T01:55:26;14.73;;;5.47;;
70071;SDS011;57434;42.794;23.302;2024-02-04T01:56:27;16.38;;;6.13;;
70071;SDS011;57434;42.794;23.302;2024-02-04T01:57:29;12.95;;;4.78;;
70071;SDS011;57434;42.794;23.302;2024-02-04T01:58:31;11.32;;;5.47;;
70071;SDS011;57434;42.794;23.302;2024-02-04T01:59:33;12.48;;;5.15;;
70071;SDS011;57434;42.794;23.302;2024-02-04T02:00:34;12.20;;;4.50;;
70071;SDS011;57434;42.794;23.302;2024-02-04T02:01:36;10.40;;;4.82;;
70071;SDS011;57434;42.794;23.302;2024-02-04T02:02:38;13.35;;;5.05;;
70071;SDS011;57434;42.794;23.302;2024-02-04T02:03:40;10.83;;;4.40;;
70071;SDS011;57434;42.794;23.302;2024-02-04T02:04:42;9.77;;;4.07;;
70071;SDS011;57434;42.794;23.302;2024-02-04T02:05:45;11.60;;;4.35;;
70071;SDS011;57434;42.794;23.302;2024-02-04T02:06:47;8.52;;;3.42;;
70071;SDS011;57434;42.794;23.302;2024-02-04T02:07:49;10.00;;;3.95;;
70071;SDS011;57434;42.794;23.302;2024-02-04T02:08:51;10.63;;;4.57;;
70071;SDS011;57434;42.794;23.302;2024-02-04T02:09:53;14.32;;;4.57;;
70071;SDS011;57434;42.794;23.302;2024-02-04T02:10:57;9.07;;;4.07;;
70071;SDS011;57434;42.794;23.302;2024-02-04T02:13:06;10.40;;;4.40;;
70071;SDS011;57434;42.794;23.302;2024-02-04T02:14:10;9.40;;;4.37;;
70071;SDS011;57434;42.794;23.302;2024-02-04T02:15:15;8.10;;;4.00;;
70071;SDS011;57434;42.794;23.302;2024-02-04T02:16:18;11.13;;;4.70;;
70071;SDS011;57434;42.794;23.302;2024-02-04T02:17:24;11.20;;;4.68;;
70071;SDS011;57434;42.794;23.302;2024-02-04T02:18:35;9.98;;;4.55;;
70071;SDS011;57434;42.794;23.302;2024-02-04T02:19:55;10.65;;;4.05;;
70071;SDS011;57434;42.794;23.302;2024-02-04T02:21:07;10.20;;;4.35;;
70071;SDS011;57434;42.794;23.302;2024-02-04T02:23:22;10.85;;;4.82;;
70071;SDS011;57434;42.794;23.302;2024-02-04T02:25:25;8.17;;;3.77;;
70071;SDS011;57434;42.794;23.302;2024-02-04T02:26:28;8.82;;;4.07;;
70071;SDS011;57434;42.794;23.302;2024-02-04T02:27:29;10.98;;;4.63;;
70071;SDS011;57434;42.794;23.302;2024-02-04T02:28:31;10.80;;;4.78;;
70071;SDS011;57434;42.794;23.302;2024-02-04T02:29:33;12.02;;;4.47;;
70071;SDS011;57434;42.794;23.302;2024-02-04T02:30:34;11.35;;;4.55;;
70071;SDS011;57434;42.794;23.302;2024-02-04T02:31:37;9.43;;;3.97;;
70071;SDS011;57434;42.794;23.302;2024-02-04T02:32:49;9.45;;;4.35;;
70071;SDS011;57434;42.794;23.302;2024-02-04T02:33:51;10.52;;;4.60;;
70071;SDS011;57434;42.794;23.302;2024-02-04T02:34:53;10.82;;;4.28;;
70071;SDS011;57434;42.794;23.302;2024-02-04T02:35:56;11.20;;;4.77;;
70071;SDS011;57434;42.794;23.302;2024-02-04T02:38:20;9.23;;;4.40;;
70071;SDS011;57434;42.794;23.302;2024-02-04T02:40:51;10.95;;;4.63;;
70071;SDS011;57434;42.794;23.302;2024-02-04T02:41:55;11.15;;;5.40;;
70071;SDS011;57434;42.794;23.302;2024-02-04T02:42:58;10.75;;;5.32;;
70071;SDS011;57434;42.794;23.302;2024-02-04T02:44:03;10.50;;;4.70;;
70071;SDS011;57434;42.794;23.302;2024-02-04T02:45:06;14.55;;;6.20;;
70071;SDS011;57434;42.794;23.302;2024-02-04T02:46:07;13.77;;;6.70;;
70071;SDS011;57434;42.794;23.302;2024-02-04T02:47:09;11.93;;;6.13;;
70071;SDS011;57434;42.794;23.302;2024-02-04T02:48:11;15.20;;;5.65;;
70071;SDS011;57434;42.794;23.302;2024-02-04T02:49:14;14.50;;;5.82;;
70071;SDS011;57434;42.794;23.302;2024-02-04T02:50:16;9.65;;;4.47;;
70071;SDS011;57434;42.794;23.302;2024-02-04T02:51:17;12.75;;;5.53;;
70071;SDS011;57434;42.794;23.302;2024-02-04T02:52:19;12.80;;;5.25;;
70071;SDS011;57434;42.794;23.302;2024-02-04T02:53:20;12.05;;;5.43;;
70071;SDS011;57434;42.794;23.302;2024-02-04T02:54:22;10.68;;;4.78;;
70071;SDS011;57434;42.794;23.302;2024-02-04T02:55:24;12.88;;;5.25;;
70071;SDS011;57434;42.794;23.302;2024-02-04T02:56:26;12.23;;;4.63;;
70071;SDS011;57434;42.794;23.302;2024-02-04T02:57:27;11.10;;;4.90;;
70071;SDS011;57434;42.794;23.302;2024-02-04T02:58:29;10.75;;;4.15;;
70071;SDS011;57434;42.794;23.302;2024-02-04T02:59:30;12.20;;;4.32;;
70071;SDS011;57434;42.794;23.302;2024-02-04T03:00:32;8.77;;;3.85;;
70071;SDS011;57434;42.794;23.302;2024-02-04T03:01:34;11.02;;;3.90;;
70071;SDS011;57434;42.794;23.302;2024-02-04T03:02:35;8.68;;;4.05;;
70071;SDS011;57434;42.794;23.302;2024-02-04T03:03:37;11.25;;;3.90;;
70071;SDS011;57434;42.794;23.302;2024-02-04T03:04:38;9.93;;;4.25;;
70071;SDS011;57434;42.794;23.302;2024-02-04T03:05:40;9.45;;;4.40;;
70071;SDS011;57434;42.794;23.302;2024-02-04T03:06:42;11.10;;;3.80;;
70071;SDS011;57434;42.794;23.302;2024-02-04T03:07:43;8.13;;;3.60;;
70071;SDS011;57434;42.794;23.302;2024-02-04T03:08:45;11.98;;;3.50;;
70071;SDS011;57434;42.794;23.302;2024-02-04T03:09:46;8.77;;;3.75;;
70071;SDS011;57434;42.794;23.302;2024-02-04T03:10:48;9.68;;;3.70;;
70071;SDS011;57434;42.794;23.302;2024-02-04T03:11:49;8.35;;;3.90;;
70071;SDS011;57434;42.794;23.302;2024-02-04T03:12:51;10.77;;;4.35;;
70071;SDS011;57434;42.794;23.302;2024-02-04T03:13:52;8.65;;;3.47;;
70071;SDS011;57434;42.794;23.302;2024-02-04T03:14:54;9.35;;;3.53;;
70071;SDS011;57434;42.794;23.302;2024-02-04T03:15:55;10.18;;;4.40;;
70071;SDS011;57434;42.794;23.302;2024-02-04T03:16:57;9.02;;;3.35;;
70071;SDS011;57434;42.794;23.302;2024-02-04T03:17:58;8.20;;;3.37;;
70071;SDS011;57434;42.794;23.302;2024-02-04T03:19:00;9.70;;;3.60;;
70071;SDS011;57434;42.794;23.302;2024-02-04T03:20:02;7.88;;;3.75;;
70071;SDS011;57434;42.794;23.302;2024-02-04T03:21:04;9.32;;;3.65;;
70071;SDS011;57434;42.794;23.302;2024-02-04T03:22:06;9.40;;;3.72;;
70071;SDS011;57434;42.794;23.302;2024-02-04T03:23:08;9.77;;;3.40;;
70071;SDS011;57434;42.794;23.302;2024-02-04T03:24:10;12.65;;;5.65;;
70071;SDS011;57434;42.794;23.302;2024-02-04T03:25:11;20.02;;;8.10;;
70071;SDS011;57434;42.794;23.302;2024-02-04T03:26:16;13.00;;;5.45;;
70071;SDS011;57434;42.794;23.302;2024-02-04T03:27:18;9.88;;;3.45;;
70071;SDS011;57434;42.794;23.302;2024-02-04T03:28:19;9.13;;;4.33;;
70071;SDS011;57434;42.794;23.302;2024-02-04T03:29:21;8.43;;;3.58;;
70071;SDS011;57434;42.794;23.302;2024-02-04T03:30:22;8.85;;;4.03;;
70071;SDS011;57434;42.794;23.302;2024-02-04T03:31:24;7.70;;;3.60;;
70071;SDS011;57434;42.794;23.302;2024-02-04T03:32:26;8.10;;;3.50;;
70071;SDS011;57434;42.794;23.302;2024-02-04T03:33:27;8.35;;;4.15;;
70071;SDS011;57434;42.794;23.302;2024-02-04T03:34:29;8.52;;;3.63;;
70071;SDS011;57434;42.794;23.302;2024-02-04T03:35:31;9.38;;;4.38;;
70071;SDS011;57434;42.794;23.302;2024-02-04T03:36:33;8.35;;;3.70;;
70071;SDS011;57434;42.794;23.302;2024-02-04T03:37:34;8.30;;;3.92;;
70071;SDS011;57434;42.794;23.302;2024-02-04T03:38:36;7.07;;;2.97;;
70071;SDS011;57434;42.794;23.302;2024-02-04T03:39:37;9.45;;;3.53;;
70071;SDS011;57434;42.794;23.302;2024-02-04T03:40:39;8.43;;;3.70;;
70071;SDS011;57434;42.794;23.302;2024-02-04T03:41:41;8.23;;;3.92;;
70071;SDS011;57434;42.794;23.302;2024-02-04T03:42:42;7.80;;;3.90;;
70071;SDS011;57434;42.794;23.302;2024-02-04T03:43:44;9.98;;;3.97;;
70071;SDS011;57434;42.794;23.302;2024-02-04T03:44:46;9.77;;;3.90;;
70071;SDS011;57434;42.794;23.302;2024-02-04T03:45:47;8.52;;;4.22;;
70071;SDS011;57434;42.794;23.302;2024-02-04T03:46:49;8.43;;;3.92;;
70071;SDS011;57434;42.794;23.302;2024-02-04T03:47:51;8.65;;;4.05;;
70071;SDS011;57434;42.794;23.302;2024-02-04T03:48:53;9.13;;;4.07;;
70071;SDS011;57434;42.794;23.302;2024-02-04T03:49:55;9.90;;;4.22;;
70071;SDS011;57434;42.794;23.302;2024-02-04T03:50:56;9.15;;;3.50;;
70071;SDS011;57434;42.794;23.302;2024-02-04T03:51:58;10.48;;;3.85;;
70071;SDS011;57434;42.794;23.302;2024-02-04T03:53:00;9.05;;;4.38;;
70071;SDS011;57434;42.794;23.302;2024-02-04T03:54:01;8.32;;;3.45;;
70071;SDS011;57434;42.794;23.302;2024-02-04T03:55:03;7.45;;;3.75;;
70071;SDS011;57434;42.794;23.302;2024-02-04T03:56:05;8.25;;;3.55;;
70071;SDS011;57434;42.794;23.302;2024-02-04T03:57:07;9.15;;;4.00;;
70071;SDS011;57434;42.794;23.302;2024-02-04T03:58:08;9.40;;;4.20;;
70071;SDS011;57434;42.794;23.302;2024-02-04T03:59:10;10.67;;;4.63;;
70071;SDS011;57434;42.794;23.302;2024-02-04T04:00:11;10.93;;;4.30;;
70071;SDS011;57434;42.794;23.302;2024-02-04T04:01:13;10.50;;;4.25;;
70071;SDS011;57434;42.794;23.302;2024-02-04T04:02:15;9.00;;;4.03;;
70071;SDS011;57434;42.794;23.302;2024-02-04T04:03:17;10.90;;;3.50;;
70071;SDS011;57434;42.794;23.302;2024-02-04T04:04:18;8.60;;;3.80;;
70071;SDS011;57434;42.794;23.302;2024-02-04T04:05:20;10.50;;;3.80;;
70071;SDS011;57434;42.794;23.302;2024-02-04T04:06:22;10.13;;;4.05;;
70071;SDS011;57434;42.794;23.302;2024-02-04T04:07:23;9.88;;;4.07;;
70071;SDS011;57434;42.794;23.302;2024-02-04T04:08:25;9.88;;;4.15;;
70071;SDS011;57434;42.794;23.302;2024-02-04T04:09:27;9.93;;;4.40;;
70071;SDS011;57434;42.794;23.302;2024-02-04T04:10:28;9.68;;;4.13;;
70071;SDS011;57434;42.794;23.302;2024-02-04T04:11:30;10.38;;;4.55;;
70071;SDS011;57434;42.794;23.302;2024-02-04T04:12:32;8.98;;;3.85;;
70071;SDS011;57434;42.794;23.302;2024-02-04T04:13:33;9.18;;;4.22;;
70071;SDS011;57434;42.794;23.302;2024-02-04T04:14:35;11.95;;;4.25;;
70071;SDS011;57434;42.794;23.302;2024-02-04T04:15:37;9.18;;;4.35;;
70071;SDS011;57434;42.794;23.302;2024-02-04T04:16:38;10.68;;;4.38;;
70071;SDS011;57434;42.794;23.302;2024-02-04T04:17:40;9.20;;;3.97;;
70071;SDS011;57434;42.794;23.302;2024-02-04T04:18:41;9.52;;;3.55;;
70071;SDS011;57434;42.794;23.302;2024-02-04T04:19:43;8.97;;;3.53;;
70071;SDS011;57434;42.794;23.302;2024-02-04T04:20:45;9.63;;;3.70;;
70071;SDS011;57434;42.794;23.302;2024-02-04T04:21:47;10.90;;;4.13;;
70071;SDS011;57434;42.794;23.302;2024-02-04T04:22:48;10.40;;;4.30;;
70071;SDS011;57434;42.794;23.302;2024-02-04T04:23:50;10.23;;;4.38;;
70071;SDS011;57434;42.794;23.302;2024-02-04T04:24:51;8.90;;;4.20;;
70071;SDS011;57434;42.794;23.302;2024-02-04T04:25:53;8.70;;;3.97;;
70071;SDS011;57434;42.794;23.302;2024-02-04T04:26:55;9.00;;;4.13;;
70071;SDS011;57434;42.794;23.302;2024-02-04T04:27:56;9.60;;;4.22;;
70071;SDS011;57434;42.794;23.302;2024-02-04T04:28:58;9.77;;;4.35;;
70071;SDS011;57434;42.794;23.302;2024-02-04T04:29:59;9.63;;;4.73;;
70071;SDS011;57434;42.794;23.302;2024-02-04T04:31:01;10.50;;;4.50;;
70071;SDS011;57434;42.794;23.302;2024-02-04T04:32:03;13.32;;;4.72;;
70071;SDS011;57434;42.794;23.302;2024-02-04T04:33:04;11.60;;;4.30;;
70071;SDS011;57434;42.794;23.302;2024-02-04T04:34:06;10.88;;;4.43;;
70071;SDS011;57434;42.794;23.302;2024-02-04T04:35:08;8.85;;;4.47;;
70071;SDS011;57434;42.794;23.302;2024-02-04T04:36:09;9.63;;;4.20;;
70071;SDS011;57434;42.794;23.302;2024-02-04T04:37:11;12.18;;;4.20;;
70071;SDS011;57434;42.794;23.302;2024-02-04T04:38:13;10.18;;;4.35;;
70071;SDS011;57434;42.794;23.302;2024-02-04T04:39:14;8.65;;;3.45;;
70071;SDS011;57434;42.794;23.302;2024-02-04T04:40:16;7.30;;;3.27;;
70071;SDS011;57434;42.794;23.302;2024-02-04T04:41:17;9.55;;;3.60;;
70071;SDS011;57434;42.794;23.302;2024-02-04T04:42:19;9.00;;;3.60;;
70071;SDS011;57434;42.794;23.302;2024-02-04T04:43:20;7.97;;;3.50;;
70071;SDS011;57434;42.794;23.302;2024-02-04T04:44:22;10.07;;;3.67;;
70071;SDS011;57434;42.794;23.302;2024-02-04T04:45:23;8.90;;;3.78;;
70071;SDS011;57434;42.794;23.302;2024-02-04T04:46:25;9.50;;;4.07;;
70071;SDS011;57434;42.794;23.302;2024-02-04T04:47:26;9.43;;;3.30;;
70071;SDS011;57434;42.794;23.302;2024-02-04T04:48:28;9.45;;;3.50;;
70071;SDS011;57434;42.794;23.302;2024-02-04T04:49:30;10.52;;;4.03;;
70071;SDS011;57434;42.794;23.302;2024-02-04T04:50:31;9.90;;;3.57;;
70071;SDS011;57434;42.794;23.302;2024-02-04T04:51:33;7.45;;;3.58;;
70071;SDS011;57434;42.794;23.302;2024-02-04T04:52:35;10.77;;;4.15;;
70071;SDS011;57434;42.794;23.302;2024-02-04T04:53:36;8.52;;;4.22;;
70071;SDS011;57434;42.794;23.302;2024-02-04T04:54:38;9.25;;;4.18;;
70071;SDS011;57434;42.794;23.302;2024-02-04T04:55:39;8.18;;;3.40;;
70071;SDS011;57434;42.794;23.302;2024-02-04T04:56:41;9.85;;;3.28;;
70071;SDS011;57434;42.794;23.302;2024-02-04T04:57:43;6.38;;;2.90;;
70071;SDS011;57434;42.794;23.302;2024-02-04T04:58:45;6.88;;;2.70;;
70071;SDS011;57434;42.794;23.302;2024-02-04T04:59:47;8.65;;;3.10;;
70071;SDS011;57434;42.794;23.302;2024-02-04T05:00:48;7.80;;;2.83;;
70071;SDS011;57434;42.794;23.302;2024-02-04T05:01:50;7.95;;;3.22;;
70071;SDS011;57434;42.794;23.302;2024-02-04T05:02:52;7.93;;;3.80;;
70071;SDS011;57434;42.794;23.302;2024-02-04T05:03:53;7.25;;;3.35;;
70071;SDS011;57434;42.794;23.302;2024-02-04T05:04:55;9.43;;;3.70;;
70071;SDS011;57434;42.794;23.302;2024-02-04T05:05:57;7.90;;;3.33;;
70071;SDS011;57434;42.794;23.302;2024-02-04T05:06:58;9.18;;;3.50;;
70071;SDS011;57434;42.794;23.302;2024-02-04T05:08:00;7.65;;;3.13;;
70071;SDS011;57434;42.794;23.302;2024-02-04T05:09:02;10.30;;;3.78;;
70071;SDS011;57434;42.794;23.302;2024-02-04T05:10:03;9.40;;;3.78;;
70071;SDS011;57434;42.794;23.302;2024-02-04T05:11:05;10.87;;;3.90;;
70071;SDS011;57434;42.794;23.302;2024-02-04T05:12:08;9.38;;;4.00;;
70071;SDS011;57434;42.794;23.302;2024-02-04T05:13:10;13.30;;;4.72;;
70071;SDS011;57434;42.794;23.302;2024-02-04T05:14:11;10.35;;;4.07;;
70071;SDS011;57434;42.794;23.302;2024-02-04T05:15:13;8.43;;;3.50;;
70071;SDS011;57434;42.794;23.302;2024-02-04T05:16:14;7.97;;;3.60;;
70071;SDS011;57434;42.794;23.302;2024-02-04T05:17:16;8.23;;;3.15;;
70071;SDS011;57434;42.794;23.302;2024-02-04T05:18:17;9.07;;;3.72;;
70071;SDS011;57434;42.794;23.302;2024-02-04T05:19:19;8.15;;;3.70;;
70071;SDS011;57434;42.794;23.302;2024-02-04T05:20:21;7.97;;;3.20;;
70071;SDS011;57434;42.794;23.302;2024-02-04T05:21:22;8.13;;;3.67;;
70071;SDS011;57434;42.794;23.302;2024-02-04T05:22:24;10.27;;;3.83;;
70071;SDS011;57434;42.794;23.302;2024-02-04T05:23:26;11.38;;;3.65;;
70071;SDS011;57434;42.794;23.302;2024-02-04T05:24:27;8.98;;;3.70;;
70071;SDS011;57434;42.794;23.302;2024-02-04T05:25:29;8.07;;;3.50;;
70071;SDS011;57434;42.794;23.302;2024-02-04T05:26:30;10.75;;;3.70;;
70071;SDS011;57434;42.794;23.302;2024-02-04T05:27:32;10.10;;;3.88;;
70071;SDS011;57434;42.794;23.302;2024-02-04T05:28:33;9.63;;;3.50;;
70071;SDS011;57434;42.794;23.302;2024-02-04T05:29:35;8.30;;;3.50;;
70071;SDS011;57434;42.794;23.302;2024-02-04T05:30:36;9.60;;;3.83;;
70071;SDS011;57434;42.794;23.302;2024-02-04T05:31:42;9.07;;;3.70;;
70071;SDS011;57434;42.794;23.302;2024-02-04T05:32:43;11.77;;;4.22;;
70071;SDS011;57434;42.794;23.302;2024-02-04T05:33:45;9.32;;;3.88;;
70071;SDS011;57434;42.794;23.302;2024-02-04T05:34:46;8.50;;;3.92;;
70071;SDS011;57434;42.794;23.302;2024-02-04T05:35:48;10.98;;;4.38;;
70071;SDS011;57434;42.794;23.302;2024-02-04T05:36:50;10.90;;;4.15;;
70071;SDS011;57434;42.794;23.302;2024-02-04T05:37:51;11.80;;;5.03;;
70071;SDS011;57434;42.794;23.302;2024-02-04T05:38:53;12.65;;;4.90;;
70071;SDS011;57434;42.794;23.302;2024-02-04T05:39:54;11.00;;;5.10;;
70071;SDS011;57434;42.794;23.302;2024-02-04T05:40:56;9.65;;;4.03;;
70071;SDS011;57434;42.794;23.302;2024-02-04T05:41:57;10.10;;;4.30;;
70071;SDS011;57434;42.794;23.302;2024-02-04T05:42:59;9.15;;;3.88;;
70071;SDS011;57434;42.794;23.302;2024-02-04T05:44:01;9.50;;;4.10;;
70071;SDS011;57434;42.794;23.302;2024-02-04T05:45:03;9.23;;;4.20;;
70071;SDS011;57434;42.794;23.302;2024-02-04T05:46:05;10.75;;;3.85;;
70071;SDS011;57434;42.794;23.302;2024-02-04T05:47:07;10.10;;;3.90;;
70071;SDS011;57434;42.794;23.302;2024-02-04T05:48:09;8.15;;;3.50;;
70071;SDS011;57434;42.794;23.302;2024-02-04T05:49:10;11.07;;;4.03;;
70071;SDS011;57434;42.794;23.302;2024-02-04T05:50:12;9.25;;;4.75;;
70071;SDS011;57434;42.794;23.302;2024-02-04T05:51:14;12.13;;;4.25;;
70071;SDS011;57434;42.794;23.302;2024-02-04T05:52:16;8.43;;;2.77;;
70071;SDS011;57434;42.794;23.302;2024-02-04T05:53:17;8.77;;;4.18;;
70071;SDS011;57434;42.794;23.302;2024-02-04T05:54:19;11.52;;;4.78;;
70071;SDS011;57434;42.794;23.302;2024-02-04T05:55:20;8.75;;;4.00;;
70071;SDS011;57434;42.794;23.302;2024-02-04T05:56:22;9.35;;;3.55;;
70071;SDS011;57434;42.794;23.302;2024-02-04T05:57:24;10.48;;;4.50;;
70071;SDS011;57434;42.794;23.302;2024-02-04T05:58:25;11.65;;;4.68;;
70071;SDS011;57434;42.794;23.302;2024-02-04T05:59:27;10.57;;;4.68;;
70071;SDS011;57434;42.794;23.302;2024-02-04T06:00:28;10.57;;;4.32;;
70071;SDS011;57434;42.794;23.302;2024-02-04T06:01:30;7.38;;;3.03;;
70071;SDS011;57434;42.794;23.302;2024-02-04T06:02:32;11.00;;;4.73;;
70071;SDS011;57434;42.794;23.302;2024-02-04T06:03:33;14.55;;;4.75;;
70071;SDS011;57434;42.794;23.302;2024-02-04T06:04:35;10.38;;;4.80;;
70071;SDS011;57434;42.794;23.302;2024-02-04T06:05:37;10.48;;;4.07;;
70071;SDS011;57434;42.794;23.302;2024-02-04T06:06:38;12.25;;;5.07;;
70071;SDS011;57434;42.794;23.302;2024-02-04T06:07:42;13.30;;;4.72;;
70071;SDS011;57434;42.794;23.302;2024-02-04T06:08:43;11.20;;;4.60;;
70071;SDS011;57434;42.794;23.302;2024-02-04T06:09:45;10.15;;;3.92;;
70071;SDS011;57434;42.794;23.302;2024-02-04T06:10:46;10.88;;;4.63;;